sensor_id;sensor_type;location;lat;lon;timestamp;P1;durP1;ratioP1;P2;durP2;ratioP2
25049;SDS011;13046;49.814;9.918;2023-06-05T00:00:21;4.55;;;2.67;;
25049;SDS011;13046;49.814;9.918;2023-06-05T00:02:49;3.72;;;2.97;;
25049;SDS011;13046;49.814;9.918;2023-06-05T00:05:15;2.85;;;2.35;;
25049;SDS011;13046;49.814;9.918;2023-06-05T00:07:43;2.95;;;2.22;;
25049;SDS011;13046;49.814;9.918;2023-06-05T00:10:09;3.83;;;2.80;;
25049;SDS011;13046;49.814;9.918;2023-06-05T00:12:36;4.90;;;2.70;;
25049;SDS011;13046;49.814;9.918;2023-06-05T00:15:02;3.20;;;2.10;;
25049;SDS011;13046;49.814;9.918;2023-06-05T00:17:29;4.22;;;2.55;;
25049;SDS011;13046;49.814;9.918;2023-06-05T00:19:56;3.28;;;2.90;;
25049;SDS011;13046;49.814;9.918;2023-06-05T00:22:25;3.20;;;2.60;;
25049;SDS011;13046;49.814;9.918;2023-06-05T00:24:52;3.17;;;2.50;;
25049;SDS011;13046;49.814;9.918;2023-06-05T00:27:18;2.85;;;2.65;;
25049;SDS011;13046;49.814;9.918;2023-06-05T00:29:46;3.05;;;2.38;;
25049;SDS011;13046;49.814;9.918;2023-06-05T00:32:12;4.95;;;3.40;;
25049;SDS011;13046;49.814;9.918;2023-06-05T00:34:38;3.50;;;2.40;;
25049;SDS011;13046;49.814;9.918;2023-06-05T00:37:04;3.35;;;2.88;;
25049;SDS011;13046;49.814;9.918;2023-06-05T00:39:31;6.28;;;2.78;;
25049;SDS011;13046;49.814;9.918;2023-06-05T00:41:57;3.42;;;2.70;;
25049;SDS011;13046;49.814;9.918;2023-06-05T00:44:23;4.57;;;3.20;;
25049;SDS011;13046;49.814;9.918;2023-06-05T00:46:50;2.95;;;2.42;;
25049;SDS011;13046;49.814;9.918;2023-06-05T00:49:17;4.53;;;2.65;;
25049;SDS011;13046;49.814;9.918;2023-06-05T00:51:44;3.15;;;2.60;;
25049;SDS011;13046;49.814;9.918;2023-06-05T00:54:11;2.95;;;2.75;;
25049;SDS011;13046;49.814;9.918;2023-06-05T00:56:39;3.97;;;3.08;;
25049;SDS011;13046;49.814;9.918;2023-06-05T00:59:06;6.57;;;3.08;;
25049;SDS011;13046;49.814;9.918;2023-06-05T01:01:32;3.67;;;2.70;;
25049;SDS011;13046;49.814;9.918;2023-06-05T01:04:00;6.10;;;2.83;;
25049;SDS011;13046;49.814;9.918;2023-06-05T01:06:28;7.63;;;2.97;;
25049;SDS011;13046;49.814;9.918;2023-06-05T01:08:56;3.13;;;2.40;;
25049;SDS011;13046;49.814;9.918;2023-06-05T01:11:35;3.40;;;2.28;;
25049;SDS011;13046;49.814;9.918;2023-06-05T01:16:32;6.00;;;3.05;;
25049;SDS011;13046;49.814;9.918;2023-06-05T01:19:02;3.53;;;2.78;;
25049;SDS011;13046;49.814;9.918;2023-06-05T01:21:29;3.67;;;2.83;;
25049;SDS011;13046;49.814;9.918;2023-06-05T01:23:56;4.47;;;3.00;;
25049;SDS011;13046;49.814;9.918;2023-06-05T01:26:22;3.40;;;3.10;;
25049;SDS011;13046;49.814;9.918;2023-06-05T01:28:51;3.78;;;2.95;;
25049;SDS011;13046;49.814;9.918;2023-06-05T01:31:18;3.92;;;2.58;;
25049;SDS011;13046;49.814;9.918;2023-06-05T01:33:47;8.15;;;3.28;;
25049;SDS011;13046;49.814;9.918;2023-06-05T01:36:17;3.30;;;2.70;;
25049;SDS011;13046;49.814;9.918;2023-06-05T01:38:44;4.45;;;2.58;;
25049;SDS011;13046;49.814;9.918;2023-06-05T01:41:11;2.78;;;2.22;;
25049;SDS011;13046;49.814;9.918;2023-06-05T01:43:38;14.07;;;3.50;;
25049;SDS011;13046;49.814;9.918;2023-06-05T01:46:05;5.05;;;2.83;;
25049;SDS011;13046;49.814;9.918;2023-06-05T01:48:33;3.70;;;3.40;;
25049;SDS011;13046;49.814;9.918;2023-06-05T01:51:00;4.13;;;2.80;;
25049;SDS011;13046;49.814;9.918;2023-06-05T01:53:28;3.58;;;2.85;;
25049;SDS011;13046;49.814;9.918;2023-06-05T01:55:55;4.03;;;2.70;;
25049;SDS011;13046;49.814;9.918;2023-06-05T01:58:25;5.75;;;2.92;;
25049;SDS011;13046;49.814;9.918;2023-06-05T02:00:51;5.18;;;3.75;;
25049;SDS011;13046;49.814;9.918;2023-06-05T02:03:18;4.25;;;3.80;;
25049;SDS011;13046;49.814;9.918;2023-06-05T02:05:44;4.88;;;3.58;;
25049;SDS011;13046;49.814;9.918;2023-06-05T02:08:11;5.93;;;3.75;;
25049;SDS011;13046;49.814;9.918;2023-06-05T02:10:38;5.45;;;3.85;;
25049;SDS011;13046;49.814;9.918;2023-06-05T02:13:09;4.03;;;3.13;;
25049;SDS011;13046;49.814;9.918;2023-06-05T02:15:35;3.35;;;2.45;;
25049;SDS011;13046;49.814;9.918;2023-06-05T02:18:02;3.45;;;2.72;;
25049;SDS011;13046;49.814;9.918;2023-06-05T02:20:31;3.58;;;3.10;;
25049;SDS011;13046;49.814;9.918;2023-06-05T02:22:57;2.70;;;2.50;;
25049;SDS011;13046;49.814;9.918;2023-06-05T02:25:24;6.78;;;4.25;;
25049;SDS011;13046;49.814;9.918;2023-06-05T02:27:53;5.10;;;3.15;;
25049;SDS011;13046;49.814;9.918;2023-06-05T02:30:19;4.03;;;3.15;;
25049;SDS011;13046;49.814;9.918;2023-06-05T02:32:45;3.85;;;2.50;;
25049;SDS011;13046;49.814;9.918;2023-06-05T02:35:12;6.75;;;3.58;;
25049;SDS011;13046;49.814;9.918;2023-06-05T02:37:39;3.53;;;2.70;;
25049;SDS011;13046;49.814;9.918;2023-06-05T02:40:10;6.13;;;3.10;;
25049;SDS011;13046;49.814;9.918;2023-06-05T02:42:37;4.00;;;3.05;;
25049;SDS011;13046;49.814;9.918;2023-06-05T02:45:04;3.65;;;2.42;;
25049;SDS011;13046;49.814;9.918;2023-06-05T02:47:31;2.80;;;2.60;;
25049;SDS011;13046;49.814;9.918;2023-06-05T02:49:58;6.72;;;3.15;;
25049;SDS011;13046;49.814;9.918;2023-06-05T02:52:24;3.53;;;3.22;;
25049;SDS011;13046;49.814;9.918;2023-06-05T02:54:51;5.78;;;3.25;;
25049;SDS011;13046;49.814;9.918;2023-06-05T02:57:18;3.88;;;3.10;;
25049;SDS011;13046;49.814;9.918;2023-06-05T02:59:45;3.10;;;2.60;;
25049;SDS011;13046;49.814;9.918;2023-06-05T03:02:15;3.55;;;3.05;;
25049;SDS011;13046;49.814;9.918;2023-06-05T03:04:45;4.13;;;3.17;;
25049;SDS011;13046;49.814;9.918;2023-06-05T03:07:19;2.60;;;2.40;;
25049;SDS011;13046;49.814;9.918;2023-06-05T03:09:48;3.20;;;2.80;;
25049;SDS011;13046;49.814;9.918;2023-06-05T03:12:14;4.93;;;2.50;;
25049;SDS011;13046;49.814;9.918;2023-06-05T03:14:41;3.28;;;2.58;;
25049;SDS011;13046;49.814;9.918;2023-06-05T03:17:07;4.75;;;3.50;;
25049;SDS011;13046;49.814;9.918;2023-06-05T03:19:33;2.90;;;2.67;;
25049;SDS011;13046;49.814;9.918;2023-06-05T03:22:01;2.95;;;2.60;;
25049;SDS011;13046;49.814;9.918;2023-06-05T03:24:29;3.42;;;2.65;;
25049;SDS011;13046;49.814;9.918;2023-06-05T03:27:00;3.85;;;2.97;;
25049;SDS011;13046;49.814;9.918;2023-06-05T03:29:27;4.10;;;2.97;;
25049;SDS011;13046;49.814;9.918;2023-06-05T03:31:53;2.97;;;2.65;;
25049;SDS011;13046;49.814;9.918;2023-06-05T03:34:19;4.15;;;3.20;;
25049;SDS011;13046;49.814;9.918;2023-06-05T03:36:49;5.55;;;2.97;;
25049;SDS011;13046;49.814;9.918;2023-06-05T03:39:17;4.75;;;3.47;;
25049;SDS011;13046;49.814;9.918;2023-06-05T03:41:45;3.83;;;3.45;;
25049;SDS011;13046;49.814;9.918;2023-06-05T03:44:11;7.05;;;3.45;;
25049;SDS011;13046;49.814;9.918;2023-06-05T03:46:37;5.95;;;3.20;;
25049;SDS011;13046;49.814;9.918;2023-06-05T03:49:04;3.47;;;3.08;;
25049;SDS011;13046;49.814;9.918;2023-06-05T03:51:34;3.17;;;2.85;;
25049;SDS011;13046;49.814;9.918;2023-06-05T03:54:01;4.15;;;2.83;;
25049;SDS011;13046;49.814;9.918;2023-06-05T03:56:28;4.13;;;3.10;;
25049;SDS011;13046;49.814;9.918;2023-06-05T03:59:04;5.65;;;3.50;;
25049;SDS011;13046;49.814;9.918;2023-06-05T04:01:36;3.85;;;3.28;;
25049;SDS011;13046;49.814;9.918;2023-06-05T04:04:06;3.60;;;3.20;;
25049;SDS011;13046;49.814;9.918;2023-06-05T04:06:33;5.13;;;3.08;;
25049;SDS011;13046;49.814;9.918;2023-06-05T04:09:02;4.75;;;2.92;;
25049;SDS011;13046;49.814;9.918;2023-06-05T04:11:37;8.40;;;3.15;;
25049;SDS011;13046;49.814;9.918;2023-06-05T04:14:04;4.28;;;2.72;;
25049;SDS011;13046;49.814;9.918;2023-06-05T04:16:30;6.63;;;3.85;;
25049;SDS011;13046;49.814;9.918;2023-06-05T04:18:56;4.60;;;2.78;;
25049;SDS011;13046;49.814;9.918;2023-06-05T04:21:22;4.32;;;3.53;;
25049;SDS011;13046;49.814;9.918;2023-06-05T04:23:48;5.05;;;3.40;;
25049;SDS011;13046;49.814;9.918;2023-06-05T04:26:15;6.40;;;2.72;;
25049;SDS011;13046;49.814;9.918;2023-06-05T04:28:42;2.58;;;2.35;;
25049;SDS011;13046;49.814;9.918;2023-06-05T04:31:09;4.25;;;3.85;;
25049;SDS011;13046;49.814;9.918;2023-06-05T04:33:35;4.45;;;3.30;;
25049;SDS011;13046;49.814;9.918;2023-06-05T04:36:01;4.15;;;2.72;;
25049;SDS011;13046;49.814;9.918;2023-06-05T04:38:29;3.40;;;2.80;;
25049;SDS011;13046;49.814;9.918;2023-06-05T04:40:56;3.63;;;2.97;;
25049;SDS011;13046;49.814;9.918;2023-06-05T04:43:22;4.15;;;3.53;;
25049;SDS011;13046;49.814;9.918;2023-06-05T04:45:49;3.63;;;2.50;;
25049;SDS011;13046;49.814;9.918;2023-06-05T04:48:16;4.10;;;2.83;;
25049;SDS011;13046;49.814;9.918;2023-06-05T04:50:42;6.45;;;3.75;;
25049;SDS011;13046;49.814;9.918;2023-06-05T04:53:11;4.88;;;3.60;;
25049;SDS011;13046;49.814;9.918;2023-06-05T04:55:39;4.90;;;2.75;;
25049;SDS011;13046;49.814;9.918;2023-06-05T04:58:05;5.90;;;3.40;;
25049;SDS011;13046;49.814;9.918;2023-06-05T05:00:32;3.35;;;3.05;;
25049;SDS011;13046;49.814;9.918;2023-06-05T05:03:01;3.13;;;2.72;;
25049;SDS011;13046;49.814;9.918;2023-06-05T05:05:28;3.38;;;2.53;;
25049;SDS011;13046;49.814;9.918;2023-06-05T05:07:55;4.07;;;3.42;;
25049;SDS011;13046;49.814;9.918;2023-06-05T05:10:23;4.13;;;2.95;;
25049;SDS011;13046;49.814;9.918;2023-06-05T05:12:49;9.40;;;3.28;;
25049;SDS011;13046;49.814;9.918;2023-06-05T05:15:15;3.83;;;2.83;;
25049;SDS011;13046;49.814;9.918;2023-06-05T05:17:41;5.60;;;3.53;;
25049;SDS011;13046;49.814;9.918;2023-06-05T05:20:07;7.85;;;3.03;;
25049;SDS011;13046;49.814;9.918;2023-06-05T05:22:36;8.30;;;3.63;;
25049;SDS011;13046;49.814;9.918;2023-06-05T05:25:03;4.45;;;2.58;;
25049;SDS011;13046;49.814;9.918;2023-06-05T05:27:29;5.30;;;2.80;;
25049;SDS011;13046;49.814;9.918;2023-06-05T05:29:56;5.45;;;3.22;;
25049;SDS011;13046;49.814;9.918;2023-06-05T05:32:22;6.65;;;3.10;;
25049;SDS011;13046;49.814;9.918;2023-06-05T05:34:48;5.18;;;2.83;;
25049;SDS011;13046;49.814;9.918;2023-06-05T05:37:16;4.57;;;3.65;;
25049;SDS011;13046;49.814;9.918;2023-06-05T05:39:44;3.83;;;2.80;;
25049;SDS011;13046;49.814;9.918;2023-06-05T05:42:10;5.80;;;2.63;;
25049;SDS011;13046;49.814;9.918;2023-06-05T05:44:37;4.50;;;3.28;;
25049;SDS011;13046;49.814;9.918;2023-06-05T05:47:13;4.53;;;2.60;;
25049;SDS011;13046;49.814;9.918;2023-06-05T05:49:39;4.22;;;3.55;;
25049;SDS011;13046;49.814;9.918;2023-06-05T05:52:05;3.53;;;3.05;;
25049;SDS011;13046;49.814;9.918;2023-06-05T05:54:31;4.68;;;2.72;;
25049;SDS011;13046;49.814;9.918;2023-06-05T05:56:57;7.95;;;3.13;;
25049;SDS011;13046;49.814;9.918;2023-06-05T05:59:23;3.90;;;2.65;;
25049;SDS011;13046;49.814;9.918;2023-06-05T06:01:49;5.35;;;3.00;;
25049;SDS011;13046;49.814;9.918;2023-06-05T06:04:18;2.60;;;2.30;;
25049;SDS011;13046;49.814;9.918;2023-06-05T06:06:45;7.88;;;2.78;;
25049;SDS011;13046;49.814;9.918;2023-06-05T06:09:17;3.83;;;2.38;;
25049;SDS011;13046;49.814;9.918;2023-06-05T06:11:43;3.97;;;2.33;;
25049;SDS011;13046;49.814;9.918;2023-06-05T06:14:10;3.28;;;2.75;;
25049;SDS011;13046;49.814;9.918;2023-06-05T06:16:36;6.93;;;3.28;;
25049;SDS011;13046;49.814;9.918;2023-06-05T06:19:03;5.60;;;2.70;;
25049;SDS011;13046;49.814;9.918;2023-06-05T06:21:29;6.05;;;2.40;;
25049;SDS011;13046;49.814;9.918;2023-06-05T06:23:55;6.68;;;3.28;;
25049;SDS011;13046;49.814;9.918;2023-06-05T06:26:22;4.22;;;2.50;;
25049;SDS011;13046;49.814;9.918;2023-06-05T06:28:48;4.38;;;2.97;;
25049;SDS011;13046;49.814;9.918;2023-06-05T06:31:14;5.07;;;3.35;;
25049;SDS011;13046;49.814;9.918;2023-06-05T06:33:40;7.82;;;2.40;;
25049;SDS011;13046;49.814;9.918;2023-06-05T06:36:06;2.80;;;2.35;;
25049;SDS011;13046;49.814;9.918;2023-06-05T06:38:34;2.55;;;2.20;;
25049;SDS011;13046;49.814;9.918;2023-06-05T06:41:00;4.03;;;2.55;;
25049;SDS011;13046;49.814;9.918;2023-06-05T06:43:26;4.03;;;2.28;;
25049;SDS011;13046;49.814;9.918;2023-06-05T06:46:03;3.28;;;2.00;;
25049;SDS011;13046;49.814;9.918;2023-06-05T06:48:30;3.97;;;2.40;;
25049;SDS011;13046;49.814;9.918;2023-06-05T06:50:57;6.43;;;2.92;;
25049;SDS011;13046;49.814;9.918;2023-06-05T06:53:23;6.93;;;2.42;;
25049;SDS011;13046;49.814;9.918;2023-06-05T06:55:49;4.18;;;3.13;;
25049;SDS011;13046;49.814;9.918;2023-06-05T06:58:15;2.67;;;2.47;;
25049;SDS011;13046;49.814;9.918;2023-06-05T07:00:43;2.42;;;2.10;;
25049;SDS011;13046;49.814;9.918;2023-06-05T07:03:09;2.47;;;2.15;;
25049;SDS011;13046;49.814;9.918;2023-06-05T07:05:35;2.40;;;2.13;;
25049;SDS011;13046;49.814;9.918;2023-06-05T07:08:01;4.00;;;2.28;;
25049;SDS011;13046;49.814;9.918;2023-06-05T07:10:27;3.92;;;2.13;;
25049;SDS011;13046;49.814;9.918;2023-06-05T07:12:54;2.50;;;2.30;;
25049;SDS011;13046;49.814;9.918;2023-06-05T07:15:20;3.35;;;2.78;;
25049;SDS011;13046;49.814;9.918;2023-06-05T07:17:46;5.47;;;2.55;;
25049;SDS011;13046;49.814;9.918;2023-06-05T07:20:12;5.95;;;2.60;;
25049;SDS011;13046;49.814;9.918;2023-06-05T07:22:41;3.50;;;2.63;;
25049;SDS011;13046;49.814;9.918;2023-06-05T07:25:08;4.75;;;2.78;;
25049;SDS011;13046;49.814;9.918;2023-06-05T07:27:34;3.00;;;2.17;;
25049;SDS011;13046;49.814;9.918;2023-06-05T07:30:01;3.15;;;2.42;;
25049;SDS011;13046;49.814;9.918;2023-06-05T07:32:27;3.22;;;2.90;;
25049;SDS011;13046;49.814;9.918;2023-06-05T07:34:53;3.63;;;2.33;;
25049;SDS011;13046;49.814;9.918;2023-06-05T07:37:19;4.05;;;2.65;;
25049;SDS011;13046;49.814;9.918;2023-06-05T07:39:45;6.32;;;2.22;;
25049;SDS011;13046;49.814;9.918;2023-06-05T07:42:12;2.65;;;2.45;;
25049;SDS011;13046;49.814;9.918;2023-06-05T07:44:38;3.90;;;2.40;;
25049;SDS011;13046;49.814;9.918;2023-06-05T07:47:04;4.82;;;2.67;;
25049;SDS011;13046;49.814;9.918;2023-06-05T07:49:30;3.17;;;2.17;;
25049;SDS011;13046;49.814;9.918;2023-06-05T07:51:57;4.57;;;2.72;;
25049;SDS011;13046;49.814;9.918;2023-06-05T07:54:23;3.67;;;2.72;;
25049;SDS011;13046;49.814;9.918;2023-06-05T07:56:49;4.35;;;2.15;;
25049;SDS011;13046;49.814;9.918;2023-06-05T07:59:16;2.58;;;2.22;;
25049;SDS011;13046;49.814;9.918;2023-06-05T08:01:49;2.67;;;2.47;;
25049;SDS011;13046;49.814;9.918;2023-06-05T08:04:15;2.40;;;2.20;;
25049;SDS011;13046;49.814;9.918;2023-06-05T08:06:42;4.68;;;2.80;;
25049;SDS011;13046;49.814;9.918;2023-06-05T08:09:10;2.25;;;1.85;;
25049;SDS011;13046;49.814;9.918;2023-06-05T08:11:37;4.53;;;2.20;;
25049;SDS011;13046;49.814;9.918;2023-06-05T08:14:04;2.47;;;2.15;;
25049;SDS011;13046;49.814;9.918;2023-06-05T08:16:31;8.13;;;2.55;;
25049;SDS011;13046;49.814;9.918;2023-06-05T08:18:57;4.63;;;3.35;;
25049;SDS011;13046;49.814;9.918;2023-06-05T08:21:23;3.20;;;2.15;;
25049;SDS011;13046;49.814;9.918;2023-06-05T08:23:49;3.83;;;2.40;;
25049;SDS011;13046;49.814;9.918;2023-06-05T08:26:18;5.20;;;2.88;;
25049;SDS011;13046;49.814;9.918;2023-06-05T08:28:45;3.80;;;2.45;;
25049;SDS011;13046;49.814;9.918;2023-06-05T08:31:12;4.80;;;2.63;;
25049;SDS011;13046;49.814;9.918;2023-06-05T08:33:38;6.75;;;4.22;;
25049;SDS011;13046;49.814;9.918;2023-06-05T08:36:05;2.90;;;2.55;;
25049;SDS011;13046;49.814;9.918;2023-06-05T08:38:32;3.03;;;2.58;;
25049;SDS011;13046;49.814;9.918;2023-06-05T08:41:07;4.05;;;2.80;;
25049;SDS011;13046;49.814;9.918;2023-06-05T08:43:39;7.97;;;2.45;;
25049;SDS011;13046;49.814;9.918;2023-06-05T08:46:06;3.22;;;2.50;;
25049;SDS011;13046;49.814;9.918;2023-06-05T08:48:37;2.72;;;2.47;;
25049;SDS011;13046;49.814;9.918;2023-06-05T08:51:03;5.68;;;2.63;;
25049;SDS011;13046;49.814;9.918;2023-06-05T08:53:31;3.10;;;2.40;;
25049;SDS011;13046;49.814;9.918;2023-06-05T08:55:59;5.97;;;2.58;;
25049;SDS011;13046;49.814;9.918;2023-06-05T08:58:26;3.10;;;2.08;;
25049;SDS011;13046;49.814;9.918;2023-06-05T09:00:52;5.25;;;2.60;;
25049;SDS011;13046;49.814;9.918;2023-06-05T09:03:19;4.50;;;2.75;;
25049;SDS011;13046;49.814;9.918;2023-06-05T09:05:46;5.55;;;3.35;;
25049;SDS011;13046;49.814;9.918;2023-06-05T09:08:13;3.35;;;2.60;;
25049;SDS011;13046;49.814;9.918;2023-06-05T09:10:39;6.00;;;2.38;;
25049;SDS011;13046;49.814;9.918;2023-06-05T09:13:05;4.88;;;2.58;;
25049;SDS011;13046;49.814;9.918;2023-06-05T09:15:33;4.75;;;2.55;;
25049;SDS011;13046;49.814;9.918;2023-06-05T09:18:03;4.38;;;2.42;;
25049;SDS011;13046;49.814;9.918;2023-06-05T09:20:33;2.83;;;2.22;;
25049;SDS011;13046;49.814;9.918;2023-06-05T09:23:00;2.28;;;2.08;;
25049;SDS011;13046;49.814;9.918;2023-06-05T09:25:32;4.88;;;2.33;;
25049;SDS011;13046;49.814;9.918;2023-06-05T09:28:09;3.80;;;2.45;;
25049;SDS011;13046;49.814;9.918;2023-06-05T09:30:45;2.38;;;2.17;;
25049;SDS011;13046;49.814;9.918;2023-06-05T09:35:44;3.42;;;2.70;;
25049;SDS011;13046;49.814;9.918;2023-06-05T09:38:24;5.38;;;2.40;;
25049;SDS011;13046;49.814;9.918;2023-06-05T09:40:51;5.63;;;2.25;;
25049;SDS011;13046;49.814;9.918;2023-06-05T09:43:20;3.65;;;2.70;;
25049;SDS011;13046;49.814;9.918;2023-06-05T09:45:49;6.03;;;3.10;;
25049;SDS011;13046;49.814;9.918;2023-06-05T09:48:15;2.65;;;2.45;;
25049;SDS011;13046;49.814;9.918;2023-06-05T09:50:41;3.35;;;2.65;;
25049;SDS011;13046;49.814;9.918;2023-06-05T09:53:08;2.55;;;2.30;;
25049;SDS011;13046;49.814;9.918;2023-06-05T09:55:35;3.55;;;2.67;;
25049;SDS011;13046;49.814;9.918;2023-06-05T09:58:03;3.72;;;2.55;;
25049;SDS011;13046;49.814;9.918;2023-06-05T10:00:38;3.58;;;2.45;;
25049;SDS011;13046;49.814;9.918;2023-06-05T10:03:12;4.18;;;3.47;;
25049;SDS011;13046;49.814;9.918;2023-06-05T10:05:40;3.85;;;2.42;;
25049;SDS011;13046;49.814;9.918;2023-06-05T10:08:06;2.50;;;2.30;;
25049;SDS011;13046;49.814;9.918;2023-06-05T10:10:33;3.55;;;2.88;;
25049;SDS011;13046;49.814;9.918;2023-06-05T10:13:00;2.90;;;2.60;;
25049;SDS011;13046;49.814;9.918;2023-06-05T10:15:27;2.75;;;2.40;;
25049;SDS011;13046;49.814;9.918;2023-06-05T10:17:53;3.20;;;2.75;;
25049;SDS011;13046;49.814;9.918;2023-06-05T10:20:21;6.25;;;2.85;;
25049;SDS011;13046;49.814;9.918;2023-06-05T10:22:47;2.70;;;2.42;;
25049;SDS011;13046;49.814;9.918;2023-06-05T10:25:14;3.95;;;3.42;;
25049;SDS011;13046;49.814;9.918;2023-06-05T10:27:52;3.00;;;2.72;;
25049;SDS011;13046;49.814;9.918;2023-06-05T10:38:25;3.78;;;2.45;;
25049;SDS011;13046;49.814;9.918;2023-06-05T10:45:50;3.95;;;2.63;;
25049;SDS011;13046;49.814;9.918;2023-06-05T10:48:16;5.15;;;2.42;;
25049;SDS011;13046;49.814;9.918;2023-06-05T10:50:43;4.60;;;2.88;;
25049;SDS011;13046;49.814;9.918;2023-06-05T10:55:53;4.20;;;2.58;;
25049;SDS011;13046;49.814;9.918;2023-06-05T10:58:20;3.38;;;2.92;;
25049;SDS011;13046;49.814;9.918;2023-06-05T11:03:52;10.75;;;3.17;;
25049;SDS011;13046;49.814;9.918;2023-06-05T11:06:18;6.00;;;3.17;;
25049;SDS011;13046;49.814;9.918;2023-06-05T11:11:53;6.20;;;2.90;;
25049;SDS011;13046;49.814;9.918;2023-06-05T11:14:17;3.42;;;3.13;;
25049;SDS011;13046;49.814;9.918;2023-06-05T11:16:43;3.78;;;2.78;;
25049;SDS011;13046;49.814;9.918;2023-06-05T11:22:24;2.88;;;2.42;;
25049;SDS011;13046;49.814;9.918;2023-06-05T11:24:32;6.72;;;3.13;;
25049;SDS011;13046;49.814;9.918;2023-06-05T11:26:59;5.40;;;3.08;;
25049;SDS011;13046;49.814;9.918;2023-06-05T11:29:25;2.83;;;2.63;;
25049;SDS011;13046;49.814;9.918;2023-06-05T11:31:52;5.30;;;2.83;;
25049;SDS011;13046;49.814;9.918;2023-06-05T11:34:18;3.85;;;3.38;;
25049;SDS011;13046;49.814;9.918;2023-06-05T11:36:45;3.40;;;3.10;;
25049;SDS011;13046;49.814;9.918;2023-06-05T11:39:11;4.38;;;2.72;;
25049;SDS011;13046;49.814;9.918;2023-06-05T11:41:47;4.63;;;2.75;;
25049;SDS011;13046;49.814;9.918;2023-06-05T11:44:14;6.32;;;3.22;;
25049;SDS011;13046;49.814;9.918;2023-06-05T11:46:41;3.50;;;2.88;;
25049;SDS011;13046;49.814;9.918;2023-06-05T11:49:09;3.63;;;2.50;;
25049;SDS011;13046;49.814;9.918;2023-06-05T11:51:48;4.07;;;2.90;;
25049;SDS011;13046;49.814;9.918;2023-06-05T11:54:24;4.60;;;2.92;;
25049;SDS011;13046;49.814;9.918;2023-06-05T11:56:55;4.05;;;2.90;;
25049;SDS011;13046;49.814;9.918;2023-06-05T11:59:21;5.30;;;4.03;;
25049;SDS011;13046;49.814;9.918;2023-06-05T12:01:48;7.88;;;3.25;;
25049;SDS011;13046;49.814;9.918;2023-06-05T12:04:15;3.20;;;2.92;;
25049;SDS011;13046;49.814;9.918;2023-06-05T12:06:42;3.70;;;2.75;;
25049;SDS011;13046;49.814;9.918;2023-06-05T12:09:09;3.85;;;2.60;;
25049;SDS011;13046;49.814;9.918;2023-06-05T12:11:35;6.38;;;2.72;;
25049;SDS011;13046;49.814;9.918;2023-06-05T12:14:03;6.32;;;3.10;;
25049;SDS011;13046;49.814;9.918;2023-06-05T12:16:33;4.20;;;2.85;;
25049;SDS011;13046;49.814;9.918;2023-06-05T12:18:59;3.95;;;3.25;;
25049;SDS011;13046;49.814;9.918;2023-06-05T12:21:26;4.68;;;2.83;;
25049;SDS011;13046;49.814;9.918;2023-06-05T12:24:02;4.60;;;3.13;;
25049;SDS011;13046;49.814;9.918;2023-06-05T12:26:28;3.08;;;2.75;;
25049;SDS011;13046;49.814;9.918;2023-06-05T12:29:04;3.75;;;2.85;;
25049;SDS011;13046;49.814;9.918;2023-06-05T12:31:36;3.28;;;2.35;;
25049;SDS011;13046;49.814;9.918;2023-06-05T12:34:07;4.53;;;4.13;;
25049;SDS011;13046;49.814;9.918;2023-06-05T12:36:39;4.55;;;3.10;;
25049;SDS011;13046;49.814;9.918;2023-06-05T12:39:14;4.45;;;2.95;;
25049;SDS011;13046;49.814;9.918;2023-06-05T12:41:41;5.55;;;3.60;;
25049;SDS011;13046;49.814;9.918;2023-06-05T12:44:07;3.70;;;3.40;;
25049;SDS011;13046;49.814;9.918;2023-06-05T12:46:34;7.88;;;3.78;;
25049;SDS011;13046;49.814;9.918;2023-06-05T12:49:01;9.45;;;3.85;;
25049;SDS011;13046;49.814;9.918;2023-06-05T12:51:28;3.50;;;2.95;;
25049;SDS011;13046;49.814;9.918;2023-06-05T12:53:54;3.47;;;3.17;;
25049;SDS011;13046;49.814;9.918;2023-06-05T12:56:20;3.08;;;2.70;;
25049;SDS011;13046;49.814;9.918;2023-06-05T12:58:50;4.88;;;3.30;;
25049;SDS011;13046;49.814;9.918;2023-06-05T13:01:16;5.65;;;2.80;;
25049;SDS011;13046;49.814;9.918;2023-06-05T13:03:42;3.03;;;2.53;;
25049;SDS011;13046;49.814;9.918;2023-06-05T13:06:09;5.50;;;3.42;;
25049;SDS011;13046;49.814;9.918;2023-06-05T13:08:35;5.28;;;3.20;;
25049;SDS011;13046;49.814;9.918;2023-06-05T13:11:01;4.78;;;2.95;;
25049;SDS011;13046;49.814;9.918;2023-06-05T13:13:27;12.98;;;4.53;;
25049;SDS011;13046;49.814;9.918;2023-06-05T13:15:54;7.82;;;3.90;;
25049;SDS011;13046;49.814;9.918;2023-06-05T13:18:20;3.10;;;2.72;;
25049;SDS011;13046;49.814;9.918;2023-06-05T13:20:46;4.13;;;3.25;;
25049;SDS011;13046;49.814;9.918;2023-06-05T13:23:12;3.95;;;3.53;;
25049;SDS011;13046;49.814;9.918;2023-06-05T13:25:38;4.03;;;3.53;;
25049;SDS011;13046;49.814;9.918;2023-06-05T13:28:05;4.22;;;3.22;;
25049;SDS011;13046;49.814;9.918;2023-06-05T13:30:31;4.85;;;3.92;;
25049;SDS011;13046;49.814;9.918;2023-06-05T13:32:57;6.28;;;4.10;;
25049;SDS011;13046;49.814;9.918;2023-06-05T13:35:23;4.03;;;3.67;;
25049;SDS011;13046;49.814;9.918;2023-06-05T13:37:49;6.00;;;4.05;;
25049;SDS011;13046;49.814;9.918;2023-06-05T13:40:17;4.55;;;3.40;;
25049;SDS011;13046;49.814;9.918;2023-06-05T13:42:43;3.42;;;3.13;;
25049;SDS011;13046;49.814;9.918;2023-06-05T13:45:09;4.25;;;3.80;;
25049;SDS011;13046;49.814;9.918;2023-06-05T13:47:36;6.25;;;3.30;;
25049;SDS011;13046;49.814;9.918;2023-06-05T13:50:02;4.25;;;3.35;;
25049;SDS011;13046;49.814;9.918;2023-06-05T13:52:28;4.03;;;3.63;;
25049;SDS011;13046;49.814;9.918;2023-06-05T13:54:54;4.50;;;4.10;;
25049;SDS011;13046;49.814;9.918;2023-06-05T13:57:20;6.47;;;5.47;;
25049;SDS011;13046;49.814;9.918;2023-06-05T13:59:46;5.53;;;4.57;;
25049;SDS011;13046;49.814;9.918;2023-06-05T14:02:12;5.82;;;4.15;;
25049;SDS011;13046;49.814;9.918;2023-06-05T14:04:38;7.60;;;4.22;;
25049;SDS011;13046;49.814;9.918;2023-06-05T14:07:04;6.88;;;4.60;;
25049;SDS011;13046;49.814;9.918;2023-06-05T14:09:31;4.43;;;3.95;;
25049;SDS011;13046;49.814;9.918;2023-06-05T14:11:57;5.25;;;4.75;;
25049;SDS011;13046;49.814;9.918;2023-06-05T14:14:24;4.60;;;4.20;;
25049;SDS011;13046;49.814;9.918;2023-06-05T14:16:51;8.13;;;6.32;;
25049;SDS011;13046;49.814;9.918;2023-06-05T14:19:17;7.60;;;4.25;;
25049;SDS011;13046;49.814;9.918;2023-06-05T14:21:43;4.47;;;3.92;;
25049;SDS011;13046;49.814;9.918;2023-06-05T14:24:09;5.05;;;4.43;;
25049;SDS011;13046;49.814;9.918;2023-06-05T14:26:36;11.32;;;4.88;;
25049;SDS011;13046;49.814;9.918;2023-06-05T14:29:02;5.30;;;4.63;;
25049;SDS011;13046;49.814;9.918;2023-06-05T14:31:28;5.80;;;4.53;;
25049;SDS011;13046;49.814;9.918;2023-06-05T14:33:55;6.78;;;4.53;;
25049;SDS011;13046;49.814;9.918;2023-06-05T14:36:21;5.50;;;4.70;;
25049;SDS011;13046;49.814;9.918;2023-06-05T14:38:47;5.38;;;4.60;;
25049;SDS011;13046;49.814;9.918;2023-06-05T14:41:13;5.15;;;4.75;;
25049;SDS011;13046;49.814;9.918;2023-06-05T14:43:39;5.72;;;4.30;;
25049;SDS011;13046;49.814;9.918;2023-06-05T14:46:05;4.60;;;4.03;;
25049;SDS011;13046;49.814;9.918;2023-06-05T14:48:31;7.00;;;4.60;;
25049;SDS011;13046;49.814;9.918;2023-06-05T14:50:57;4.53;;;4.15;;
25049;SDS011;13046;49.814;9.918;2023-06-05T14:53:23;5.40;;;4.90;;
25049;SDS011;13046;49.814;9.918;2023-06-05T14:55:50;7.43;;;5.13;;
25049;SDS011;13046;49.814;9.918;2023-06-05T14:58:16;7.25;;;4.78;;
25049;SDS011;13046;49.814;9.918;2023-06-05T15:00:42;11.63;;;5.18;;
25049;SDS011;13046;49.814;9.918;2023-06-05T15:03:08;5.25;;;4.75;;
25049;SDS011;13046;49.814;9.918;2023-06-05T15:05:36;5.60;;;5.20;;
25049;SDS011;13046;49.814;9.918;2023-06-05T15:08:02;6.50;;;4.63;;
25049;SDS011;13046;49.814;9.918;2023-06-05T15:10:30;6.25;;;4.75;;
25049;SDS011;13046;49.814;9.918;2023-06-05T15:12:56;6.68;;;6.00;;
25049;SDS011;13046;49.814;9.918;2023-06-05T15:15:25;5.60;;;5.13;;
25049;SDS011;13046;49.814;9.918;2023-06-05T15:17:52;10.68;;;6.10;;